Pilot L239 — OJ9461 — position and weather

sailwx.info

Track history (hours):
 
Tides and Currents Weather Stations Pressure Air Temp Water Temp Dewpoint Dewpoint Depression Visibility Wind Speed Wind Dir Waves Ship Positions

Pilot L239

Last reported at 2014-Sep-15 19:33 UTC. Time now 2014-Sep-16 00:54 UTC.
Position N 60°07' E 025°04'.

Length 15 m.

Type: Pilot. MMSI: 230035440.

Date/timePositionNaut miles runAvg speedWind from/ knotsBaromVisibWave heightAir tempDewpointWater temp
2014-Sep-15 19:33N 60°07' E 025°04'3 0.6
2014-Sep-15 15:10N 60°06' E 024°59'1 0.3
2014-Sep-15 13:12N 60°06' E 024°60'1 2.3
2014-Sep-15 12:33N 60°07' E 025°02'4 4.0
2014-Sep-15 11:33N 60°10' E 024°58'4 2.9
2014-Sep-15 10:14N 60°06' E 024°58'0 0.0
2014-Sep-15 07:30N 60°06' E 024°58'0 0.0
2014-Sep-15 04:11N 60°06' E 024°59'2 3.3
2014-Sep-15 03:33N 60°08' E 024°60'2 0.1
2014-Sep-14 13:11N 60°07' E 024°59'1 0.2
2014-Sep-14 09:33N 60°07' E 024°59'3 2.4
2014-Sep-14 08:23N 60°10' E 024°58'7 3.5
2014-Sep-14 06:25N 60°03' E 024°58'6 0.4
2014-Sep-13 15:06N 60°05' E 025°10'6 3.6
2014-Sep-13 13:26N 60°06' E 024°58'0 0.0
2014-Sep-13 11:25N 60°06' E 024°58'3 1.6
2014-Sep-13 09:33N 60°07' E 025°04'3 1.4
2014-Sep-13 07:28N 60°06' E 024°58'0 0.0
2014-Sep-13 06:32N 60°06' E 024°58'0 0.0
2014-Sep-13 05:32N 60°06' E 024°58'0 0.0
2014-Sep-13 04:33N 60°06' E 024°58'4 4.2
2014-Sep-13 03:33N 60°02' E 024°57'7 0.4
2014-Sep-12 11:32N 60°06' E 025°09'7 6.8
2014-Sep-12 10:32N 60°10' E 024°58'0 0.0
2014-Sep-12 06:17N 60°10' E 024°58'4 1.9
2014-Sep-12 04:14N 60°06' E 024°58'3 0.2
2014-Sep-11 17:14N 60°07' E 025°04'2 0.9
2014-Sep-11 14:28N 60°06' E 025°08'4 0.9
2014-Sep-11 10:11N 60°06' E 025°01'1 1.3
2014-Sep-11 09:33N 60°07' E 025°01'1 0.9
2014-Sep-11 08:18N 60°06' E 024°58'1 1.6
2014-Sep-11 07:33N 60°07' E 025°01'1 0.4
2014-Sep-11 05:33N 60°07' E 025°02'2 1.7
2014-Sep-11 04:19N 60°06' E 024°58'0 0.3
2014-Sep-11 03:33N 60°07' E 024°59'0 0.0
2014-Sep-10 16:26N 60°06' E 024°58'4 1.8
2014-Sep-10 14:32N 60°03' E 024°56'1 1.0
2014-Sep-10 13:24N 60°04' E 024°57'6 6.3
2014-Sep-10 12:26N 60°06' E 025°09'5 4.6
2014-Sep-10 11:18N 60°06' E 024°58'0 0.0
2014-Sep-10 09:03N 60°06' E 024°58'2 4.6
2014-Sep-10 08:34N 60°07' E 025°03'2 0.6
2014-Sep-10 04:30N 60°06' E 024°58'2 0.6
2014-Sep-10 00:30N 60°07' E 025°03'2 0.3
2014-Sep-09 16:31N 60°06' E 024°59'0 0.1
2014-Sep-09 15:07N 60°06' E 024°58'0 0.5
2014-Sep-09 14:33N 60°06' E 024°59'0 0.1
2014-Sep-09 13:33N 60°06' E 024°59'0 0.1
2014-Sep-09 11:12N 60°06' E 024°58'4 6.0
2014-Sep-09 10:33N 60°10' E 024°58'6 2.8
2014-Sep-09 08:33N 60°06' E 025°06'4 2.6
2014-Sep-09 07:06N 60°06' E 024°59'2 4.4
2014-Sep-09 06:33N 60°07' E 025°03'3 1.4
2014-Sep-09 04:33N 60°05' E 024°58'3 0.3
2014-Sep-08 19:31N 60°07' E 025°03'4 2.0
2014-Sep-08 17:22N 60°10' E 024°58'4 3.3
2014-Sep-08 16:10N 60°06' E 024°58'2 0.9
2014-Sep-08 14:34N 60°07' E 025°01'2 1.4
2014-Sep-08 13:30N 60°06' E 024°58'6 6.2
2014-Sep-08 12:33N 60°05' E 025°10'2 2.1
2014-Sep-08 11:33N 60°06' E 025°06'4 1.3
2014-Sep-08 08:29N 60°06' E 024°58'4 3.1
2014-Sep-08 07:14N 60°10' E 024°58'0 0.0
2014-Sep-08 06:18N 60°10' E 024°58'1 1.0
2014-Sep-08 05:33N 60°10' E 024°59'4 2.9
2014-Sep-08 04:15N 60°06' E 024°58'1 2.0
2014-Sep-08 03:33N 60°05' E 024°58'5 4.5
2014-Sep-08 02:23N 60°04' E 025°09'6 0.5
2014-Sep-07 13:32N 60°03' E 024°56'4 0.5
2014-Sep-07 06:18N 60°06' E 024°58'0 0.0
2014-Sep-07 03:33N 60°06' E 024°59'0 0.0
2014-Sep-06 11:33N 60°06' E 024°59'  
Track history (hours):
 
Tides and Currents Weather Stations Pressure Air Temp Water Temp Dewpoint Dewpoint Depression Visibility Wind Speed Wind Dir Waves Ship Positions

Pilot L239

Last reported at 2014-Sep-15 19:33 UTC. Time now 2014-Sep-16 00:54 UTC.
Position N 60°07' E 025°04'.

Length 15 m.

Type: Pilot. MMSI: 230035440.

Date/timePositionNaut miles runAvg speedWind from/ knotsBaromVisibWave heightAir tempDewpointWater temp
2014-Sep-15 19:33N 60°07' E 025°04'3 0.6
2014-Sep-15 15:10N 60°06' E 024°59'1 0.3
2014-Sep-15 13:12N 60°06' E 024°60'1 2.3
2014-Sep-15 12:33N 60°07' E 025°02'4 4.0
2014-Sep-15 11:33N 60°10' E 024°58'4 2.9
2014-Sep-15 10:14N 60°06' E 024°58'0 0.0
2014-Sep-15 07:30N 60°06' E 024°58'0 0.0
2014-Sep-15 04:11N 60°06' E 024°59'2 3.3
2014-Sep-15 03:33N 60°08' E 024°60'2 0.1
2014-Sep-14 13:11N 60°07' E 024°59'1 0.2
2014-Sep-14 09:33N 60°07' E 024°59'3 2.4
2014-Sep-14 08:23N 60°10' E 024°58'7 3.5
2014-Sep-14 06:25N 60°03' E 024°58'6 0.4
2014-Sep-13 15:06N 60°05' E 025°10'6 3.6
2014-Sep-13 13:26N 60°06' E 024°58'0 0.0
2014-Sep-13 11:25N 60°06' E 024°58'3 1.6
2014-Sep-13 09:33N 60°07' E 025°04'3 1.4
2014-Sep-13 07:28N 60°06' E 024°58'0 0.0
2014-Sep-13 06:32N 60°06' E 024°58'0 0.0
2014-Sep-13 05:32N 60°06' E 024°58'0 0.0
2014-Sep-13 04:33N 60°06' E 024°58'4 4.2
2014-Sep-13 03:33N 60°02' E 024°57'7 0.4
2014-Sep-12 11:32N 60°06' E 025°09'7 6.8
2014-Sep-12 10:32N 60°10' E 024°58'0 0.0
2014-Sep-12 06:17N 60°10' E 024°58'4 1.9
2014-Sep-12 04:14N 60°06' E 024°58'3 0.2
2014-Sep-11 17:14N 60°07' E 025°04'2 0.9
2014-Sep-11 14:28N 60°06' E 025°08'4 0.9
2014-Sep-11 10:11N 60°06' E 025°01'1 1.3
2014-Sep-11 09:33N 60°07' E 025°01'1 0.9
2014-Sep-11 08:18N 60°06' E 024°58'1 1.6
2014-Sep-11 07:33N 60°07' E 025°01'1 0.4
2014-Sep-11 05:33N 60°07' E 025°02'2 1.7
2014-Sep-11 04:19N 60°06' E 024°58'0 0.3
2014-Sep-11 03:33N 60°07' E 024°59'0 0.0
2014-Sep-10 16:26N 60°06' E 024°58'4 1.8
2014-Sep-10 14:32N 60°03' E 024°56'1 1.0
2014-Sep-10 13:24N 60°04' E 024°57'6 6.3
2014-Sep-10 12:26N 60°06' E 025°09'5 4.6
2014-Sep-10 11:18N 60°06' E 024°58'0 0.0
2014-Sep-10 09:03N 60°06' E 024°58'2 4.6
2014-Sep-10 08:34N 60°07' E 025°03'2 0.6
2014-Sep-10 04:30N 60°06' E 024°58'2 0.6
2014-Sep-10 00:30N 60°07' E 025°03'2 0.3
2014-Sep-09 16:31N 60°06' E 024°59'0 0.1
2014-Sep-09 15:07N 60°06' E 024°58'0 0.5
2014-Sep-09 14:33N 60°06' E 024°59'0 0.1
2014-Sep-09 13:33N 60°06' E 024°59'0 0.1
2014-Sep-09 11:12N 60°06' E 024°58'4 6.0
2014-Sep-09 10:33N 60°10' E 024°58'6 2.8
2014-Sep-09 08:33N 60°06' E 025°06'4 2.6
2014-Sep-09 07:06N 60°06' E 024°59'2 4.4
2014-Sep-09 06:33N 60°07' E 025°03'3 1.4
2014-Sep-09 04:33N 60°05' E 024°58'3 0.3
2014-Sep-08 19:31N 60°07' E 025°03'4 2.0
2014-Sep-08 17:22N 60°10' E 024°58'4 3.3
2014-Sep-08 16:10N 60°06' E 024°58'2 0.9
2014-Sep-08 14:34N 60°07' E 025°01'2 1.4
2014-Sep-08 13:30N 60°06' E 024°58'6 6.2
2014-Sep-08 12:33N 60°05' E 025°10'2 2.1
2014-Sep-08 11:33N 60°06' E 025°06'4 1.3
2014-Sep-08 08:29N 60°06' E 024°58'4 3.1
2014-Sep-08 07:14N 60°10' E 024°58'0 0.0
2014-Sep-08 06:18N 60°10' E 024°58'1 1.0
2014-Sep-08 05:33N 60°10' E 024°59'4 2.9
2014-Sep-08 04:15N 60°06' E 024°58'1 2.0
2014-Sep-08 03:33N 60°05' E 024°58'5 4.5
2014-Sep-08 02:23N 60°04' E 025°09'6 0.5
2014-Sep-07 13:32N 60°03' E 024°56'4 0.5
2014-Sep-07 06:18N 60°06' E 024°58'0 0.0
2014-Sep-07 03:33N 60°06' E 024°59'0 0.0
2014-Sep-06 11:33N 60°06' E 024°59'  

Dump ship's entire track history